Sidell, Florida
Current Conditions -  °F | °C
As of 5:53 PM on Wednesday 22 Oct 2014 (Local Time) from KPGD Reporting Station
Clear Clear  
Wind Chill: 83°   Ceiling: Unl
Heat Index: 86°   Visibility: 10mi
Dew Point: 68°   Wind: 5mph
Humidity: 60%   Direction: 90°E
Pressure: 29.93"   Gusts: NA
Location:  27.215°N, 81.8567°W
Report Text: KPGD 222153Z 09004KT 10SM CLR 28/20 A2993 RMK AO2 SLP135 T02830200
Loading
Personal Weather Stations






























Interactive Weather Map New forecast layout! Learn more

10-Day Weather Forecast

Advertisements
Track Severe Weather on mobile